Time;durP1;ratioP1;P1;durP2;ratioP2;P2;SDS_P1;SDS_P2;PMS_P1;PMS_P2;Temp;Humidity;BMP_temperature;BMP_pressure;BME280_temperature;BME280_humidity;BME280_pressure;Samples;Min_cycle;Max_cycle;Signal;HPM_P1;HPM_P2
2022/04/17 00:00:50;;;;;;;9.63;4.38;;;4.00;89.50;;;;;;5014100;28;20050;-80
2022/04/17 00:03:43;;;;;;;5.65;4.10;;;4.00;89.80;;;;;;4995508;28;20085;-81
2022/04/17 00:06:35;;;;;;;5.63;3.90;;;4.00;90.00;;;;;;5006208;28;20376;-81
2022/04/17 00:09:25;;;;;;;5.30;4.00;;;4.00;90.30;;;;;;5022662;28;20041;-81
2022/04/17 00:12:13;;;;;;;5.75;3.88;;;4.00;90.10;;;;;;5019485;28;20057;-81
2022/04/17 00:15:04;;;;;;;7.32;3.70;;;4.00;90.50;;;;;;5024793;28;20045;-82
2022/04/17 00:17:54;;;;;;;7.07;4.18;;;4.00;90.50;;;;;;5012753;28;20053;-80
2022/04/17 00:20:55;;;;;;;7.45;4.25;;;3.90;91.20;;;;;;5021813;28;20494;-82
2022/04/17 00:23:47;;;;;;;8.48;4.22;;;3.80;92.00;;;;;;5024129;28;20045;-82
2022/04/17 00:26:34;;;;;;;8.90;5.45;;;3.70;92.50;;;;;;5019331;28;20435;-81
2022/04/17 00:29:21;;;;;;;5.00;4.10;;;3.70;92.90;;;;;;5011818;28;20057;-83
2022/04/17 00:32:08;;;;;;;8.05;4.38;;;3.70;93.30;;;;;;5014347;28;20101;-84
2022/04/17 00:35:06;;;;;;;5.70;3.88;;;3.80;93.40;;;;;;5022099;28;20045;-82
2022/04/17 00:37:57;;;;;;;6.03;4.18;;;3.70;93.20;;;;;;5010587;28;20053;-83
2022/04/17 00:40:51;;;;;;;5.72;4.20;;;3.60;93.40;;;;;;5014787;28;20050;-83
2022/04/17 00:43:50;;;;;;;6.25;4.25;;;3.60;94.30;;;;;;5012867;28;20117;-82
2022/04/17 00:46:57;;;;;;;6.10;4.53;;;3.70;94.40;;;;;;5010617;28;20050;-82
2022/04/17 00:49:46;;;;;;;9.38;4.20;;;3.70;94.50;;;;;;5017092;28;20046;-82
2022/04/17 00:52:33;;;;;;;8.48;4.82;;;3.60;94.50;;;;;;5019075;28;20038;-84
2022/04/17 00:55:21;;;;;;;5.57;4.20;;;3.60;94.80;;;;;;5017928;28;20045;-83
2022/04/17 00:58:13;;;;;;;6.72;4.55;;;3.50;95.30;;;;;;5017912;28;20107;-81
2022/04/17 01:01:04;;;;;;;8.07;4.05;;;3.60;95.20;;;;;;5019317;28;20514;-83
2022/04/17 01:03:51;;;;;;;10.98;4.50;;;3.50;95.40;;;;;;5001337;28;20046;-82
2022/04/17 01:06:41;;;;;;;6.20;4.30;;;3.50;96.00;;;;;;5025467;28;20096;-82
2022/04/17 01:09:31;;;;;;;6.47;4.20;;;3.50;96.60;;;;;;5023462;28;20080;-81
2022/04/17 01:12:19;;;;;;;8.68;4.20;;;3.40;96.90;;;;;;5037715;28;20128;-81
2022/04/17 01:15:21;;;;;;;6.75;4.22;;;3.40;97.40;;;;;;5024592;28;20046;-83
2022/04/17 01:18:14;;;;;;;6.13;4.40;;;3.40;96.80;;;;;;5018053;28;20248;-82
2022/04/17 01:21:08;;;;;;;8.18;4.47;;;3.40;96.90;;;;;;5017204;28;20042;-81
2022/04/17 01:27:34;;;;;;;8.23;4.43;;;3.30;98.50;;;;;;5008025;28;20088;-81
2022/04/17 01:31:09;;;;;;;8.18;4.30;;;3.20;99.00;;;;;;5007327;28;20104;-82
2022/04/17 01:34:24;;;;;;;6.07;4.35;;;3.20;98.70;;;;;;4957891;28;20097;-82
2022/04/17 01:37:23;;;;;;;8.63;5.20;;;3.20;99.90;;;;;;4975533;28;20058;-80
2022/04/17 01:40:11;;;;;;;6.10;4.90;;;3.10;99.90;;;;;;4988913;28;20197;-84
2022/04/17 01:43:08;;;;;;;8.00;4.85;;;3.00;99.90;;;;;;4986506;28;20046;-81
2022/04/17 01:46:13;;;;;;;9.20;4.65;;;3.10;99.90;;;;;;5007490;28;20113;-82
2022/04/17 01:49:18;;;;;;;8.23;4.88;;;3.00;99.90;;;;;;4995523;28;20046;-82
2022/04/17 01:52:34;;;;;;;8.25;5.18;;;2.90;99.90;;;;;;5012751;28;20058;-80
2022/04/17 01:55:28;;;;;;;5.05;4.35;;;2.80;99.90;;;;;;4986722;28;20051;-81
2022/04/17 01:58:20;;;;;;;8.02;4.93;;;2.70;99.90;;;;;;5005733;28;20069;-81
2022/04/17 02:01:26;;;;;;;5.88;3.60;;;2.70;99.90;;;;;;5038894;28;20076;-81
2022/04/17 02:08:21;;;;;;;7.70;5.32;;;2.40;99.90;;;;;;5006850;28;20093;-82
2022/04/17 02:11:08;;;;;;;6.30;4.97;;;2.40;99.90;;;;;;5006506;28;20108;-81
2022/04/17 02:14:01;;;;;;;10.23;5.43;;;2.40;99.90;;;;;;5008157;28;20064;-83
2022/04/17 02:16:50;;;;;;;;;;;2.30;99.90;;;;;;4987996;28;20409;-82
2022/04/17 02:19:41;;;;;;;11.73;5.90;;;2.20;99.90;;;;;;4996195;28;19932;-82
2022/04/17 02:22:29;;;;;;;9.32;5.60;;;2.30;99.90;;;;;;5016745;28;20069;-82
2022/04/17 02:25:17;;;;;;;8.93;6.15;;;2.30;99.90;;;;;;5015081;28;20077;-82
2022/04/17 02:28:09;;;;;;;10.70;5.82;;;2.30;99.90;;;;;;5015585;28;20050;-81
2022/04/17 02:30:57;;;;;;;;;;;2.30;99.90;;;;;;5013968;28;20054;-83
2022/04/17 02:33:59;;;;;;;7.78;5.15;;;2.30;99.90;;;;;;5000558;28;20397;-82
2022/04/17 02:36:48;;;;;;;5.80;4.37;;;2.20;99.90;;;;;;5023386;28;20042;-80
2022/04/17 02:39:37;;;;;;;9.73;5.72;;;2.20;99.90;;;;;;5009070;28;20270;-82
2022/04/17 02:42:28;;;;;;;9.20;5.75;;;2.20;99.90;;;;;;5026329;28;20128;-82
2022/04/17 02:45:17;;;;;;;10.90;6.03;;;2.30;99.90;;;;;;5027286;28;20114;-82
2022/04/17 02:48:19;;;;;;;7.20;5.70;;;2.20;99.90;;;;;;5013844;28;20050;-82
2022/04/17 02:51:11;;;;;;;7.78;5.90;;;2.10;99.90;;;;;;5013804;28;20148;-82
2022/04/17 02:54:01;;;;;;;9.48;6.10;;;2.00;99.90;;;;;;5013176;28;20046;-82
2022/04/17 02:56:48;;;;;;;10.35;5.40;;;1.90;99.90;;;;;;5033618;28;20439;-81
2022/04/17 02:59:38;;;;;;;9.38;6.50;;;1.90;99.90;;;;;;5010315;28;20049;-82
2022/04/17 03:05:41;;;;;;;9.10;5.82;;;1.90;99.90;;;;;;5014223;28;20733;-81
2022/04/17 03:08:28;;;;;;;8.45;6.00;;;1.80;99.90;;;;;;5010364;28;20341;-81
2022/04/17 03:11:16;;;;;;;9.75;6.22;;;1.80;99.90;;;;;;5000223;28;20038;-81
2022/04/17 03:14:03;;;;;;;12.00;5.78;;;1.80;99.90;;;;;;4993276;28;20054;-82
2022/04/17 03:16:56;;;;;;;8.68;5.82;;;1.80;99.90;;;;;;5010661;28;20053;-83
2022/04/17 03:19:46;;;;;;;7.50;5.53;;;1.70;99.90;;;;;;5008037;28;20034;-82
2022/04/17 03:22:33;;;;;;;8.80;6.85;;;1.60;99.90;;;;;;5002180;28;20054;-81
2022/04/17 03:25:21;;;;;;;11.75;6.40;;;1.70;99.90;;;;;;5005182;28;20131;-82
2022/04/17 03:28:13;;;;;;;8.90;6.05;;;1.70;99.90;;;;;;5006155;28;20053;-82
2022/04/17 03:31:00;;;;;;;10.20;6.38;;;1.70;99.90;;;;;;5015882;28;20391;-82
2022/04/17 03:33:47;;;;;;;12.45;6.40;;;1.70;99.90;;;;;;5012308;28;20048;-83
2022/04/17 03:36:39;;;;;;;8.80;6.60;;;1.70;99.90;;;;;;5007625;28;20108;-81
2022/04/17 03:39:29;;;;;;;14.55;6.63;;;1.60;99.90;;;;;;5015001;28;20045;-83
2022/04/17 03:42:17;;;;;;;9.75;6.07;;;1.60;99.90;;;;;;5003349;28;20065;-82
2022/04/17 03:45:06;;;;;;;7.63;5.80;;;1.50;99.90;;;;;;5018738;28;20050;-82
2022/04/17 03:47:53;;;;;;;7.78;6.05;;;1.40;99.90;;;;;;5018699;28;20345;-82
2022/04/17 03:50:43;;;;;;;7.75;6.20;;;1.30;99.90;;;;;;5018608;28;20121;-82
2022/04/17 03:53:30;;;;;;;10.38;6.40;;;1.30;99.90;;;;;;5010064;28;20560;-82
2022/04/17 03:56:20;;;;;;;9.65;6.72;;;1.40;99.90;;;;;;5012945;28;20159;-83
2022/04/17 03:59:11;;;;;;;13.45;5.97;;;1.50;99.90;;;;;;5007930;28;20057;-81
2022/04/17 04:02:01;;;;;;;7.15;5.82;;;1.50;99.90;;;;;;5024020;28;20060;-81
2022/04/17 04:04:49;;;;;;;9.60;6.03;;;1.40;99.90;;;;;;5011789;28;20046;-81
2022/04/17 04:07:37;;;;;;;8.90;6.60;;;1.30;99.90;;;;;;5012212;28;20152;-81
2022/04/17 04:10:24;;;;;;;8.88;6.70;;;1.20;99.90;;;;;;4998648;28;20463;-80
2022/04/17 04:13:16;;;;;;;10.30;6.35;;;1.10;99.90;;;;;;5013276;28;20100;-80
2022/04/17 04:16:04;;;;;;;9.30;6.43;;;1.10;99.90;;;;;;5012095;28;20042;-80
2022/04/17 04:18:51;;;;;;;11.43;6.97;;;1.00;99.90;;;;;;4996614;28;20479;-80
2022/04/17 04:21:47;;;;;;;10.30;7.32;;;1.00;99.90;;;;;;5023810;28;20439;-81
2022/04/17 04:24:35;;;;;;;9.15;6.53;;;1.00;99.90;;;;;;5023931;28;20127;-82
2022/04/17 04:30:28;;;;;;;10.50;6.97;;;0.90;99.90;;;;;;5020631;28;20045;-82
2022/04/17 04:33:15;;;;;;;11.38;7.13;;;0.80;99.90;;;;;;5014871;28;20049;-82
2022/04/17 04:36:04;;;;;;;10.63;7.00;;;0.80;99.90;;;;;;5025625;28;20049;-81
2022/04/17 04:38:54;;;;;;;10.77;7.32;;;0.90;99.90;;;;;;5009382;28;20038;-81
2022/04/17 04:41:59;;;;;;;10.20;6.85;;;1.10;99.90;;;;;;5016407;28;20050;-82
2022/04/17 04:44:47;;;;;;;8.13;6.60;;;1.10;99.90;;;;;;5023292;28;20088;-82
2022/04/17 04:47:37;;;;;;;11.07;7.10;;;1.10;99.90;;;;;;5027057;28;20136;-81
2022/04/17 04:50:24;;;;;;;10.23;6.82;;;1.10;99.90;;;;;;5010575;28;20172;-83
2022/04/17 04:53:11;;;;;;;10.18;6.72;;;1.10;99.90;;;;;;5018879;28;20050;-82
2022/04/17 04:56:00;;;;;;;10.18;6.55;;;1.10;99.90;;;;;;5018213;28;20084;-82
2022/04/17 04:58:50;;;;;;;11.93;7.03;;;1.20;99.90;;;;;;5006020;28;20061;-82
2022/04/17 05:01:37;;;;;;;10.48;7.03;;;1.20;99.90;;;;;;5011166;28;20050;-81
2022/04/17 05:04:30;;;;;;;11.20;7.65;;;1.20;99.90;;;;;;5013012;28;20115;-83
2022/04/17 05:07:20;;;;;;;12.27;7.05;;;1.10;99.90;;;;;;5025436;28;20207;-81
2022/04/17 05:10:07;;;;;;;10.65;7.00;;;1.20;99.90;;;;;;5035228;28;20069;-82
2022/04/17 05:13:00;;;;;;;9.75;6.28;;;1.30;99.90;;;;;;5019360;28;20124;-82
2022/04/17 05:15:49;;;;;;;9.35;6.22;;;1.50;99.90;;;;;;5020440;28;20458;-81
2022/04/17 05:18:39;;;;;;;8.93;6.25;;;1.50;99.90;;;;;;5016395;28;20038;-82
2022/04/17 05:21:31;;;;;;;14.20;8.43;;;1.50;99.90;;;;;;5027779;28;20076;-81
2022/04/17 05:24:23;;;;;;;12.73;7.32;;;1.40;99.90;;;;;;5015248;28;20050;-81
2022/04/17 05:27:12;;;;;;;10.32;7.53;;;1.40;99.90;;;;;;5014248;28;20049;-79
2022/04/17 05:30:02;;;;;;;15.25;7.78;;;1.40;99.90;;;;;;5014419;28;20050;-82
2022/04/17 05:32:54;;;;;;;14.50;7.80;;;1.40;99.90;;;;;;5022310;28;20042;-82
2022/04/17 05:35:41;;;;;;;11.27;6.60;;;1.60;99.90;;;;;;5012267;28;20065;-81
2022/04/17 05:38:28;;;;;;;10.50;6.57;;;1.70;99.90;;;;;;5021253;28;20149;-80
2022/04/17 05:41:18;;;;;;;12.18;6.40;;;1.90;99.90;;;;;;5017341;28;20086;-80
2022/04/17 05:44:07;;;;;;;10.82;6.13;;;2.10;99.90;;;;;;5014824;28;20080;-81
2022/04/17 05:46:59;;;;;;;10.18;6.38;;;2.30;99.90;;;;;;5017437;28;20345;-81
2022/04/17 05:49:46;;;;;;;8.63;6.45;;;2.40;99.90;;;;;;5008570;28;20375;-81
2022/04/17 05:52:34;;;;;;;7.43;5.68;;;2.60;99.90;;;;;;5006500;28;20088;-81
2022/04/17 05:55:24;;;;;;;8.85;5.85;;;2.70;99.90;;;;;;5014118;28;20049;-81
2022/04/17 05:58:11;;;;;;;8.27;5.28;;;2.80;99.90;;;;;;5017216;28;20098;-81
2022/04/17 06:01:03;;;;;;;9.00;6.63;;;2.90;99.90;;;;;;5019226;28;20069;-81
2022/04/17 06:03:51;;;;;;;8.65;5.30;;;3.00;99.90;;;;;;5012544;28;20047;-82
2022/04/17 06:06:38;;;;;;;7.70;5.00;;;3.20;99.90;;;;;;5007378;28;20742;-81
2022/04/17 06:09:27;;;;;;;7.05;4.53;;;3.30;99.90;;;;;;5010827;28;20049;-81
2022/04/17 06:12:15;;;;;;;9.02;4.95;;;3.40;99.90;;;;;;5012244;28;20072;-81
2022/04/17 06:15:10;;;;;;;9.27;5.55;;;3.60;99.90;;;;;;5025104;28;20050;-82
2022/04/17 06:17:59;;;;;;;7.43;5.50;;;3.70;99.90;;;;;;5016771;28;20068;-81
2022/04/17 06:20:46;;;;;;;7.60;5.22;;;3.80;99.90;;;;;;5022146;28;20052;-81
2022/04/17 06:23:34;;;;;;;9.98;5.15;;;4.00;99.90;;;;;;5037456;28;20065;-81
2022/04/17 06:26:26;;;;;;;9.35;5.28;;;4.20;99.90;;;;;;5026998;28;20050;-80
2022/04/17 06:29:13;;;;;;;4.97;4.20;;;4.40;99.90;;;;;;5006533;28;20061;-80
2022/04/17 06:32:01;;;;;;;6.50;4.40;;;4.60;99.90;;;;;;5019986;28;20050;-81
2022/04/17 06:34:48;;;;;;;7.93;4.50;;;4.90;99.90;;;;;;5014548;28;20049;-80
2022/04/17 06:38:06;;;;;;;6.68;4.45;;;5.10;99.90;;;;;;5015345;28;20375;-78
2022/04/17 06:40:54;;;;;;;6.40;4.18;;;5.20;99.90;;;;;;4999427;28;20065;-83
2022/04/17 06:43:42;;;;;;;6.35;3.78;;;5.50;99.90;;;;;;5012415;28;20100;-82
2022/04/17 06:46:30;;;;;;;6.57;4.10;;;5.80;99.90;;;;;;5013610;28;20053;-81
2022/04/17 06:49:17;;;;;;;5.95;4.25;;;6.10;98.50;;;;;;5031303;28;20331;-83
2022/04/17 06:52:04;;;;;;;5.55;3.88;;;6.30;98.00;;;;;;5017100;28;20391;-80
2022/04/17 06:54:52;;;;;;;6.93;4.13;;;6.70;96.00;;;;;;5015536;28;20297;-81
2022/04/17 06:57:50;;;;;;;6.70;3.92;;;6.90;93.90;;;;;;5012093;28;20249;-81
2022/04/17 07:00:37;;;;;;;5.15;3.53;;;7.20;93.00;;;;;;5017634;28;20042;-85
2022/04/17 07:07:33;;;;;;;5.40;3.67;;;7.50;90.50;;;;;;5006935;28;20037;-85
2022/04/17 07:10:20;;;;;;;6.47;3.40;;;8.00;88.80;;;;;;5003039;28;20042;-85
2022/04/17 07:13:11;;;;;;;4.90;3.35;;;8.20;85.10;;;;;;5006237;28;20427;-83
2022/04/17 07:16:01;;;;;;;5.45;3.28;;;8.30;81.00;;;;;;5010205;28;20427;-82
2022/04/17 07:18:53;;;;;;;4.30;3.05;;;8.40;81.30;;;;;;5001886;28;20355;-86
2022/04/17 07:21:42;;;;;;;4.97;3.03;;;8.80;77.80;;;;;;5011035;28;20355;-87
2022/04/17 07:25:20;;;;;;;4.00;3.58;;;8.90;77.70;;;;;;5013454;28;20125;-89
2022/04/17 07:28:14;;;;;;;6.32;2.97;;;9.30;76.90;;;;;;5016472;28;20049;-85
2022/04/17 07:31:21;;;;;;;6.18;3.65;;;9.40;71.40;;;;;;5012959;28;20056;-87
2022/04/17 07:34:31;;;;;;;5.65;3.13;;;9.40;73.00;;;;;;5013390;28;20056;-88
2022/04/17 07:37:36;;;;;;;5.28;2.70;;;9.70;72.50;;;;;;5011783;28;20049;-88
2022/04/17 07:44:35;;;;;;;4.35;2.72;;;10.30;66.80;;;;;;5011331;28;20037;-88
2022/04/17 07:47:25;;;;;;;5.05;2.03;;;10.70;67.10;;;;;;5008686;28;20416;-84
2022/04/17 07:50:23;;;;;;;2.95;2.65;;;10.90;64.40;;;;;;5008716;28;20451;-84
2022/04/17 07:53:10;;;;;;;3.63;2.70;;;10.90;64.20;;;;;;5008687;28;20053;-83
2022/04/17 07:55:58;;;;;;;4.43;2.60;;;11.00;62.20;;;;;;5017980;28;20046;-81
2022/04/17 07:59:25;;;;;;;4.25;2.67;;;11.60;61.10;;;;;;5020742;28;20038;-82
2022/04/17 08:06:21;;;;;;;3.20;2.70;;;12.00;59.10;;;;;;5009983;28;20349;-83
2022/04/17 08:10:01;;;;;;;3.90;2.63;;;12.50;58.40;;;;;;5016521;28;20053;-83
2022/04/17 08:12:50;;;;;;;5.53;2.45;;;13.10;57.30;;;;;;5007363;28;20466;-83
2022/04/17 08:15:46;;;;;;;4.50;2.45;;;13.00;54.80;;;;;;5016021;28;20049;-86
2022/04/17 08:18:39;;;;;;;3.95;2.22;;;13.30;54.40;;;;;;5025546;28;20514;-83
2022/04/17 08:21:27;;;;;;;3.10;2.10;;;13.80;51.40;;;;;;5024166;28;20054;-85
2022/04/17 08:24:17;;;;;;;3.55;2.22;;;13.90;52.50;;;;;;5016761;28;20380;-84
2022/04/17 08:27:05;;;;;;;8.13;2.28;;;14.20;50.70;;;;;;5019033;28;20100;-86
2022/04/17 08:29:54;;;;;;;3.28;1.92;;;14.50;49.20;;;;;;5018287;28;20042;-85
2022/04/17 08:32:41;;;;;;;3.22;2.25;;;14.50;47.90;;;;;;5012749;28;20045;-82
2022/04/17 08:39:52;;;;;;;7.45;2.20;;;14.20;51.00;;;;;;5009894;28;20036;-83
2022/04/17 08:42:45;;;;;;;3.05;2.15;;;13.40;50.20;;;;;;5017317;28;20041;-84
2022/04/17 08:45:33;;;;;;;4.28;2.38;;;13.70;51.20;;;;;;5017327;28;20050;-84
2022/04/17 08:52:01;;;;;;;8.93;2.30;;;14.00;49.40;;;;;;5016541;28;20042;-82
2022/04/17 08:54:57;;;;;;;3.63;1.85;;;14.10;51.10;;;;;;5012884;28;20073;-82
2022/04/17 09:02:18;;;;;;;3.17;2.10;;;14.50;49.60;;;;;;5022070;28;20030;-82
2022/04/17 09:05:20;;;;;;;2.22;1.70;;;14.30;45.20;;;;;;4986802;28;20054;-82
2022/04/17 09:22:10;;;;;;;3.15;1.85;;;15.10;43.50;;;;;;4937682;28;20060;-83
2022/04/17 09:41:55;;;;;;;2.03;1.65;;;16.00;42.80;;;;;;4931677;29;20174;-83
2022/04/17 10:05:21;;;;;;;1.52;1.20;;;17.10;38.80;;;;;;5006314;28;20054;-81
2022/04/17 10:08:10;;;;;;;1.58;1.25;;;16.40;39.20;;;;;;5027540;28;20045;-84
2022/04/17 10:11:04;;;;;;;5.13;1.73;;;16.40;39.70;;;;;;5040484;28;20056;-84
2022/04/17 10:13:52;;;;;;;3.72;1.52;;;16.50;36.70;;;;;;5028095;28;20038;-81
2022/04/17 10:17:03;;;;;;;5.50;1.42;;;17.00;38.30;;;;;;5025904;28;20049;-82
2022/04/17 10:19:51;;;;;;;2.42;1.60;;;17.70;37.00;;;;;;5024119;28;20100;-78
2022/04/17 10:34:09;;;;;;;4.00;1.48;;;18.50;35.50;;;;;;5401665;23;20134;-80
2022/04/17 10:37:12;;;;;;;2.42;1.48;;;18.30;34.60;;;;;;5028906;28;20436;-82
2022/04/17 10:40:01;;;;;;;1.85;1.48;;;17.80;35.60;;;;;;5027260;28;20065;-86
2022/04/17 10:42:59;;;;;;;4.80;1.65;;;18.10;36.20;;;;;;5035823;28;20034;-83
2022/04/17 10:46:43;;;;;;;2.08;1.23;;;18.10;36.80;;;;;;5034737;28;20082;-83
2022/04/17 11:11:45;;;;;;;2.05;1.40;;;18.40;34.60;;;;;;4991549;28;20035;-82
2022/04/17 11:14:33;;;;;;;1.65;1.27;;;17.90;33.90;;;;;;4981544;28;20055;-82
2022/04/17 11:17:22;;;;;;;1.60;1.20;;;17.30;34.10;;;;;;4985330;28;20701;-83
2022/04/17 11:20:11;;;;;;;2.70;1.30;;;17.90;34.80;;;;;;4984249;28;20170;-82
2022/04/17 11:23:00;;;;;;;1.48;1.10;;;18.50;35.50;;;;;;5023998;28;20113;-81
2022/04/17 11:31:46;;;;;;;4.25;1.27;;;18.20;32.90;;;;;;5206831;23;20069;-81
2022/04/17 11:42:51;;;;;;;1.95;1.30;;;17.80;33.00;;;;;;5004412;28;20034;-81
2022/04/17 11:45:43;;;;;;;2.05;1.05;;;18.30;33.20;;;;;;5004416;28;20557;-81
2022/04/17 11:48:30;;;;;;;1.40;1.15;;;19.00;32.70;;;;;;5016659;28;20045;-82
2022/04/17 11:51:21;;;;;;;4.30;1.10;;;19.30;32.00;;;;;;5018046;28;20176;-83
2022/04/17 11:54:34;;;;;;;2.05;1.20;;;19.10;31.10;;;;;;5017986;28;20046;-82
2022/04/17 11:57:24;;;;;;;1.50;1.02;;;19.50;32.20;;;;;;5024271;28;20077;-83
2022/04/17 12:00:13;;;;;;;2.08;0.95;;;19.10;31.00;;;;;;5026642;28;20133;-84
2022/04/17 12:03:03;;;;;;;2.78;1.20;;;20.00;31.00;;;;;;5010844;28;20140;-86
2022/04/17 12:05:50;;;;;;;1.45;1.00;;;19.50;30.90;;;;;;5013151;28;20076;-85
2022/04/17 12:08:40;;;;;;;2.85;1.05;;;19.10;30.80;;;;;;5015076;28;20056;-83
2022/04/17 12:11:28;;;;;;;5.75;1.05;;;19.50;31.70;;;;;;5002790;28;20176;-84
2022/04/17 12:14:30;;;;;;;1.42;1.00;;;19.40;31.50;;;;;;5008997;28;20795;-83
2022/04/17 12:17:21;;;;;;;2.00;0.98;;;19.80;32.10;;;;;;5016671;28;20042;-82
2022/04/17 12:20:13;;;;;;;1.33;1.00;;;19.70;32.30;;;;;;5021542;28;20482;-84
2022/04/17 12:23:02;;;;;;;2.42;1.00;;;19.50;31.40;;;;;;5011484;28;20064;-82
2022/04/17 12:25:53;;;;;;;3.03;1.20;;;19.00;31.90;;;;;;5016358;28;20124;-85
2022/04/17 12:28:40;;;;;;;2.72;1.40;;;19.00;33.50;;;;;;5025468;28;20138;-80
2022/04/17 12:31:30;;;;;;;1.63;1.10;;;18.70;33.30;;;;;;5005164;28;20042;-82
2022/04/17 12:34:20;;;;;;;2.15;1.42;;;18.50;35.40;;;;;;4999170;28;20058;-82
2022/04/17 12:37:28;;;;;;;2.03;1.30;;;18.40;36.40;;;;;;5020350;28;20046;-84
2022/04/17 12:40:21;;;;;;;1.50;1.10;;;19.50;35.80;;;;;;4994625;28;20204;-83
2022/04/17 12:43:21;;;;;;;2.97;1.00;;;20.90;30.80;;;;;;4998817;28;20051;-81
2022/04/17 12:46:08;;;;;;;2.10;1.20;;;21.60;31.10;;;;;;5024270;28;20059;-84
2022/04/17 12:49:09;;;;;;;4.13;1.27;;;21.80;32.90;;;;;;5025092;28;20045;-83
2022/04/17 12:52:01;;;;;;;3.05;1.65;;;21.40;31.40;;;;;;5024176;28;20054;-83
2022/04/17 12:54:49;;;;;;;2.87;1.33;;;21.00;31.30;;;;;;5031121;28;20053;-81
2022/04/17 12:57:37;;;;;;;2.65;1.52;;;20.30;31.40;;;;;;5021206;28;20052;-81
2022/04/17 13:00:28;;;;;;;1.67;1.20;;;19.80;31.80;;;;;;5020901;28;20057;-82
2022/04/17 13:03:18;;;;;;;3.30;1.45;;;20.30;33.00;;;;;;5027931;28;20045;-82
2022/04/17 13:06:09;;;;;;;2.17;1.10;;;19.80;33.30;;;;;;5013790;28;20037;-82
2022/04/17 13:09:18;;;;;;;1.88;1.30;;;19.90;33.70;;;;;;5018146;28;20112;-85
2022/04/17 13:12:10;;;;;;;3.60;1.50;;;20.60;31.20;;;;;;5018388;28;20058;-83
2022/04/17 13:15:03;;;;;;;1.77;0.98;;;21.00;30.50;;;;;;5009173;28;20045;-83
2022/04/17 13:17:55;;;;;;;3.67;1.45;;;21.00;33.20;;;;;;5015071;28;20476;-83
2022/04/17 13:20:46;;;;;;;2.33;1.25;;;20.60;30.90;;;;;;5013004;28;20092;-83
2022/04/17 13:23:36;;;;;;;2.17;1.65;;;20.40;31.80;;;;;;5010373;28;20050;-82
2022/04/17 13:26:23;;;;;;;1.77;1.50;;;19.90;32.80;;;;;;5015772;28;20054;-81
2022/04/17 13:29:11;;;;;;;2.78;1.40;;;20.30;33.70;;;;;;5019696;28;20054;-84
2022/04/17 13:32:03;;;;;;;2.72;1.27;;;22.10;31.00;;;;;;5015937;28;20053;-85
2022/04/17 13:34:51;;;;;;;2.35;1.35;;;21.80;29.70;;;;;;5008398;28;20127;-84
2022/04/17 13:40:46;;;;;;;3.03;1.20;;;21.20;30.50;;;;;;5030148;28;20053;-82
2022/04/17 13:43:45;;;;;;;2.25;1.45;;;21.30;30.10;;;;;;5022472;28;20055;-82
2022/04/17 13:46:35;;;;;;;2.53;1.10;;;20.40;31.30;;;;;;5019218;28;20402;-82
2022/04/17 13:53:33;;;;;;;1.98;1.20;;;20.90;31.30;;;;;;5034180;28;20037;-82
2022/04/17 13:56:21;;;;;;;1.52;1.38;;;20.90;32.10;;;;;;5013165;28;20076;-83
2022/04/17 13:59:11;;;;;;;1.95;1.10;;;22.10;29.30;;;;;;5014511;28;20050;-84
2022/04/17 14:01:58;;;;;;;4.68;1.20;;;22.60;30.20;;;;;;5019729;28;20088;-83
2022/04/17 14:04:45;;;;;;;2.03;1.23;;;21.70;29.40;;;;;;5013902;28;20057;-82
2022/04/17 14:07:35;;;;;;;1.60;1.42;;;21.30;30.00;;;;;;5024437;28;20423;-82
2022/04/17 14:10:23;;;;;;;2.15;1.20;;;20.40;30.30;;;;;;5020266;28;20050;-81
2022/04/17 14:13:11;;;;;;;2.28;1.55;;;20.30;30.00;;;;;;5023242;28;20045;-80
2022/04/17 14:16:00;;;;;;;5.68;2.92;;;20.40;31.30;;;;;;5017651;28;20152;-81
2022/04/17 14:18:47;;;;;;;2.83;1.40;;;21.20;31.80;;;;;;5011406;28;20377;-84
2022/04/17 14:21:39;;;;;;;3.60;1.17;;;21.90;29.90;;;;;;5013617;28;20356;-84
2022/04/17 14:24:26;;;;;;;3.80;1.40;;;20.90;30.00;;;;;;5014076;28;20061;-81
2022/04/17 14:27:14;;;;;;;3.13;1.55;;;20.90;29.70;;;;;;5014028;28;20152;-83
2022/04/17 14:30:01;;;;;;;2.08;1.20;;;21.40;31.10;;;;;;5013195;28;20057;-82
2022/04/17 14:32:48;;;;;;;2.17;1.20;;;21.00;29.30;;;;;;5015739;28;20061;-83
2022/04/17 14:35:36;;;;;;;2.03;1.23;;;20.40;29.60;;;;;;5016227;28;20151;-80
2022/04/17 14:38:26;;;;;;;2.85;1.20;;;20.20;31.50;;;;;;5012322;28;20076;-81
2022/04/17 14:41:16;;;;;;;1.55;1.10;;;20.70;29.60;;;;;;5014650;28;20062;-81
2022/04/17 14:44:05;;;;;;;2.15;1.25;;;21.00;30.00;;;;;;5015520;28;20046;-80
2022/04/17 14:46:52;;;;;;;3.05;1.10;;;21.50;29.90;;;;;;5020501;28;20060;-81
2022/04/17 14:49:43;;;;;;;1.45;1.15;;;20.30;31.20;;;;;;5011891;28;20050;-81
2022/04/17 14:52:34;;;;;;;2.88;1.63;;;20.90;30.00;;;;;;5012568;28;20050;-82
2022/04/17 14:55:22;;;;;;;1.33;1.13;;;20.50;30.10;;;;;;5013846;28;20046;-80
2022/04/17 14:58:09;;;;;;;2.15;1.33;;;19.80;31.10;;;;;;5014453;28;20046;-81
2022/04/17 15:00:59;;;;;;;1.50;1.40;;;19.60;31.30;;;;;;5010880;28;20060;-82
2022/04/17 15:03:47;;;;;;;1.50;1.08;;;20.00;30.00;;;;;;5012471;28;20046;-84
2022/04/17 15:06:42;;;;;;;1.67;1.25;;;19.80;31.40;;;;;;5031244;28;20056;-81
2022/04/17 15:09:32;;;;;;;2.30;1.40;;;20.40;30.50;;;;;;5017528;28;20172;-79
2022/04/17 15:12:22;;;;;;;3.22;1.23;;;20.00;29.30;;;;;;5023138;28;20044;-81
2022/04/17 15:15:10;;;;;;;2.65;1.13;;;19.50;30.00;;;;;;5014067;28;20042;-81
2022/04/17 15:18:03;;;;;;;2.25;1.52;;;20.10;30.20;;;;;;5009103;28;20156;-82
2022/04/17 15:20:51;;;;;;;7.03;1.40;;;19.70;30.80;;;;;;5017135;28;20071;-81
2022/04/17 15:23:41;;;;;;;1.77;1.30;;;19.00;31.30;;;;;;5013891;28;20443;-81
2022/04/17 15:26:28;;;;;;;2.30;1.55;;;18.60;32.50;;;;;;5025649;28;20049;-81
2022/04/17 15:29:17;;;;;;;3.22;1.70;;;18.70;32.40;;;;;;5010891;28;20085;-81
2022/04/17 15:32:06;;;;;;;1.90;1.40;;;18.40;32.20;;;;;;5005946;28;20053;-85
2022/04/17 15:34:54;;;;;;;1.40;1.30;;;17.90;32.10;;;;;;5009227;28;20069;-84
2022/04/17 15:37:46;;;;;;;3.05;1.48;;;18.20;33.60;;;;;;5010854;28;20041;-82
2022/04/17 15:40:38;;;;;;;4.65;1.63;;;18.70;32.00;;;;;;5005485;28;20049;-81
2022/04/17 15:49:48;;;;;;;3.40;1.40;;;18.70;31.90;;;;;;5012888;28;20375;-81
2022/04/17 15:52:35;;;;;;;1.90;1.35;;;18.00;33.00;;;;;;5010196;28;20104;-81
2022/04/17 15:55:26;;;;;;;2.75;1.58;;;17.70;32.90;;;;;;5010927;28;20333;-82
2022/04/17 15:58:13;;;;;;;1.58;1.05;;;17.00;34.70;;;;;;5020419;28;20565;-82
2022/04/17 16:01:00;;;;;;;1.63;1.40;;;16.70;34.30;;;;;;5012238;28;20344;-81
2022/04/17 16:03:50;;;;;;;2.25;1.40;;;16.50;35.90;;;;;;5019014;28;20045;-82
2022/04/17 16:06:38;;;;;;;2.55;1.85;;;16.60;35.60;;;;;;5008831;28;20054;-79
2022/04/17 16:09:27;;;;;;;2.92;1.63;;;16.40;36.60;;;;;;5014556;28;20057;-81
2022/04/17 16:12:16;;;;;;;3.63;1.77;;;16.10;35.50;;;;;;5001259;28;20063;-82
2022/04/17 16:15:08;;;;;;;2.67;1.83;;;16.00;36.20;;;;;;5027775;28;20045;-81
2022/04/17 16:17:59;;;;;;;2.78;1.30;;;15.60;36.50;;;;;;5022435;28;20046;-84
2022/04/17 16:20:54;;;;;;;2.30;1.50;;;15.30;37.10;;;;;;5014885;28;20046;-81
2022/04/17 16:23:41;;;;;;;1.98;1.40;;;15.20;38.00;;;;;;5026870;28;20065;-81
2022/04/17 16:26:29;;;;;;;5.80;1.50;;;14.90;38.60;;;;;;5035221;28;20155;-82
2022/04/17 16:29:16;;;;;;;1.77;1.30;;;14.60;38.10;;;;;;5043154;28;20041;-82
2022/04/17 16:32:04;;;;;;;4.63;1.52;;;14.40;39.60;;;;;;5043354;28;20054;-81
2022/04/17 16:34:52;;;;;;;3.45;1.65;;;14.30;39.30;;;;;;5039770;28;20050;-83
2022/04/17 16:37:49;;;;;;;2.95;1.58;;;14.10;40.10;;;;;;5033645;28;20131;-81
2022/04/17 16:40:39;;;;;;;2.47;1.58;;;13.80;40.70;;;;;;5037813;28;20061;-82
2022/04/17 16:43:28;;;;;;;9.38;6.25;;;13.60;41.10;;;;;;5022463;28;20054;-83
2022/04/17 16:46:19;;;;;;;3.25;1.40;;;13.40;41.30;;;;;;5019837;28;20081;-80
2022/04/17 16:49:07;;;;;;;3.28;1.48;;;13.20;42.00;;;;;;5003622;28;20069;-81
2022/04/17 16:52:02;;;;;;;2.63;1.30;;;13.10;42.40;;;;;;5017763;28;20041;-82
2022/04/17 16:54:54;;;;;;;2.72;1.60;;;12.90;42.20;;;;;;5027052;28;20149;-82
2022/04/17 17:01:14;;;;;;;3.72;1.70;;;12.80;43.30;;;;;;5014527;28;19917;-79
2022/04/17 17:04:05;;;;;;;2.33;1.45;;;12.70;43.20;;;;;;5022880;28;20055;-79
2022/04/17 17:06:55;;;;;;;2.28;1.40;;;12.60;43.40;;;;;;5025001;28;20120;-80
2022/04/17 17:09:48;;;;;;;2.88;1.60;;;12.60;44.00;;;;;;5010304;28;20057;-80
2022/04/17 17:12:36;;;;;;;2.95;1.80;;;12.50;44.40;;;;;;5010941;28;20470;-82
2022/04/17 17:15:25;;;;;;;2.80;1.50;;;12.40;44.80;;;;;;5024805;28;20080;-79
2022/04/17 17:18:15;;;;;;;2.33;1.40;;;12.30;45.10;;;;;;5021059;28;20462;-80
2022/04/17 17:21:04;;;;;;;3.47;1.52;;;12.30;46.00;;;;;;5011903;28;20514;-81
2022/04/17 17:23:52;;;;;;;3.63;1.40;;;12.10;46.40;;;;;;5019659;28;20058;-83
2022/04/17 17:26:40;;;;;;;1.92;1.45;;;12.00;46.70;;;;;;5004781;28;20204;-81
2022/04/17 17:30:06;;;;;;;2.22;1.55;;;11.90;47.20;;;;;;5012654;28;20213;-82
2022/04/17 17:32:57;;;;;;;1.75;1.40;;;11.90;46.90;;;;;;5004877;28;20054;-79